默认 日期 大小 文件数 浏览量 最新下载 xml
director磁力链接相关资源由用户搜索指令自动获取,结果来源于网络,本站不存储任何资料,亦不承担任何责任,请于24小时内删除,搜索到6347个磁力,显示前4000条数据,用时4ms。
    {"VIDEO_TS": {"VIDEO_TS.BUP": 12288, "VIDEO_TS.IFO": 12288, "VIDEO_TS.VOB": 57344, "VTS_01_0.BUP": 90112, "VTS_01_0.IFO": 90112, "VTS_01_0.VOB": 50989056, "VTS_01_1.VOB": 1073709056, "VTS_01_2.VOB": 1073709056, "VTS_01_3.VOB": 1073709056, "VTS_01_4.VOB": ...
创建时间: 2019-04-23 04:41:21 大小:7.09 GB 文件数量:14 热度:7 最近下载:2025-08-23 16:54:01
    {"Salt-sample.mkv": 105100624, "CHD-Salt.2010.Director's.Cut.nfo": 7470, "Salt.2010.Director's.Cut.2in1.BluRay.1080p.DTS.x264-CHD.mkv": 13681409176}
创建时间: 2019-04-23 11:44:32 大小:12.84 GB 文件数量:3 热度:19 最近下载:2025-02-21 20:58:02
    {"Keys.nfo": 484, "Setup.zip": 23121269}
创建时间: 2019-04-23 14:30:43 大小:22.05 MB 文件数量:2 热度:6 最近下载:2025-03-07 10:59:03
    {"www.limetorrents.com.jpg": 69292, "Torrent downloaded from Thepiratebay.sx.txt": 64, "CyberLink Power Director 12 Ultra DeLtA Sn1p3r.exe": 6495906}
创建时间: 2019-04-24 04:50:22 大小:6.26 MB 文件数量:3 热度:6 最近下载:2025-01-27 17:52:02
    {"WWW.SUMOTORRENT.SZ.jpg": 126772, "Torrent downloaded from Kickass.to.txt": 80, "Acronis Disk Director 12.6 Build 163 + BootCD.exe": 27878386, "Acronis Disk Director 12.6 Build 163 + BootCD.nfo": 868}
创建时间: 2019-04-24 10:24:27 大小:26.71 MB 文件数量:4 热度:3 最近下载:2021-06-17 16:25:58
    {"NFO.NFO": 8001, "underworld_2003_4.jpg": 284535, "Underworld.2003.Director's.Cut.Blu-ray.Remux.1080p.AVC.DTS-HD.MA5.1-HDRemuX.mkv": 27854034451, "Underworld.2003.Director's.Cut.Blu-ray.Remux.1080p.AVC.DTS-HD.MA5.1-HDRemuX.srt": 46663}
创建时间: 2019-04-24 13:43:00 大小:25.94 GB 文件数量:4 热度:15 最近下载:2024-10-08 15:11:01
    {"crack": {"run_cdb3b.exe": 61122}, "Torrent downloaded from H33t.to.txt": 84, "Acronis Disk Director 12.0 Build 98 With License Key + BootCD.exe": 12733190, "Acronis Disk Director 12.0 Build 98 With License Key + BootCD.nfo": 288}
创建时间: 2019-04-24 14:36:51 大小:12.2 MB 文件数量:4 热度:3 最近下载:2025-05-09 19:58:02
    {"Keys.nfo": 572, "Setup.zip": 23121269}
创建时间: 2019-04-24 14:37:37 大小:22.05 MB 文件数量:2 热度:6 最近下载:2025-02-11 15:49:01
    {"crack": {"run_30828.exe": 79948}, "Readme!.inf": 296, "Torrent downloaded from H33t.to.txt": 24, "Director Ultra 9.5.4716.3 Multilingual + Medicine.exe": 7426750}
创建时间: 2019-04-24 23:49:35 大小:7.16 MB 文件数量:4 热度:8 最近下载:2025-06-08 19:25:01
    {"Leeme.txt": 102, "pctnew.com.url": 121, "torrentrapid.url": 123, "descargas2020.url": 124, "TuMejorTorrent.url": 129, "Alien Director Cut 4Kmicro2160.www.descargas2020.com.mkv": 13971948795}
创建时间: 2019-04-25 07:09:43 大小:13.01 GB 文件数量:6 热度:6 最近下载:2025-07-07 10:37:01
    {"001.jpg": 901728, "002.jpg": 461596, "003.jpg": 353970, "004.jpg": 455338, "005.jpg": 186616, "006.jpg": 297565, "007.jpg": 364022, "008.jpg": 463276, "009.jpg": 485546, "010.jpg": 385447, "011.jpg": 318078, "012.jpg": 444218, "013.jpg": 358601, "014.jpg ...
创建时间: 2019-04-25 13:14:56 大小:64.7 MB 文件数量:158 热度:11 最近下载:2025-09-19 08:57:07
    {"Torrent downloaded from Digtorrent.org.txt": 80, "Director Suite Giveaway Full With Medicine.exe": 13456228}
创建时间: 2019-04-25 20:20:34 大小:12.83 MB 文件数量:2 热度:3 最近下载:2021-06-17 16:25:58
    {"crack": {"run_e7b70.exe": 131630}, "Torrent downloaded from H33t.to.txt": 24, "CyberLink Director Suite 365 v7.1 + Crack.exe": 6795718, "CyberLink Director Suite 365 v7.1 + Crack.nfo": 500}
创建时间: 2019-04-25 22:23:33 大小:6.61 MB 文件数量:4 热度:3 最近下载:2021-06-17 16:25:58
    ... .me.txt": 24, "Acronis Disk Director 12.7Build 165 + WinPE (it ... -en).exe": 2693318, "Acronis Disk Director 12.7Build 165 + WinPE (it ...
创建时间: 2019-04-25 23:26:20 大小:3.01 MB 文件数量:6 热度:6 最近下载:2025-01-19 19:59:08
    {"WWW.SUMOTORRENT.SZ.jpg": 126772, "Torrent downloaded from Kickass.to.txt": 80, "Acronis Disk Director 12.6 Build 163 + BootCD.exe": 27878386, "Acronis Disk Director 12.6 Build 163 + BootCD.nfo": 868}
创建时间: 2019-04-25 23:49:24 大小:26.71 MB 文件数量:4 热度:3 最近下载:2021-06-17 16:25:58
    {"NFO.nfo": 728, "Crank1080уууууууууу.jpg": 47426, "Crank 2006 1080p Director's Cut Blu-ray Remux VC-1 DTS-HD HR 5.1 - KRaLiMaRKo.mkv": 16860778689, "Crank 2006 1080p Director's Cut Blu-ray Remux VC-1 DTS-HD HR 5.1 - KRaLiMaRKo.srt": 54833}
创建时间: 2019-04-26 02:54:10 大小:15.7 GB 文件数量:4 热度:22 最近下载:2025-08-19 22:07:02
    {"【www.gaoqing.tv】史密斯夫妇 Mr.&.Mrs.Smith.Director's.Cut.2005.BluRay.iPad.720p.AAC.x264-CHDPAD.mp4": 2041952493}
创建时间: 2019-04-26 08:03:29 大小:1.9 GB 文件数量:1 热度:104 最近下载:2025-09-15 14:06:04
    {"clefs.txt": 177, "ADD12_trial_fr-FR.exe": 263834576}
创建时间: 2019-04-26 12:17:15 大小:251.61 MB 文件数量:2 热度:4 最近下载:2025-01-18 12:39:10
    {"Keys.nfo": 668, "Setup.zip": 23121269}
创建时间: 2019-04-26 12:35:27 大小:22.05 MB 文件数量:2 热度:4 最近下载:2024-12-05 14:46:03
    ... ": 1428316}, "Wallpaper": {"wallpaper Shadowrun - Dragonfall - Director's Cut 1920x1080.jpg": 1096728 ...
创建时间: 2019-04-26 16:36:32 大小:3.64 GB 文件数量:33 热度:6 最近下载:2024-09-27 22:30:01